• Join FlightAware (Why Join?)
  • Login
  • US Flag 
11:51PM EST


 

Airport Tracker/Info


-or-


 

Live Flight TrackerFlight Track Log ✈ N88JA ✈ 04-May-2013 ✈ KMGY - KMGY

Flight Track Log - Related Links

Times and Time Zones

All times are in EDT time to prevent confusion due to time zone crossing. See the N88JA flight status page for this flight to view local times or setup timezone preferences in your user account.

Time Position Orientation Groundspeed Altitude Reporting Facility
EDT Latitude Longitude Course Direction KTS MPH feet Rate Location/Type
04:32PM 39.5856 -84.2272 219° Southwest 65 75 1,300  Level Indianapolis Center
04:33PM 39.5694 -84.2439 219° Southwest 81 93 2,000 660 Climbing Indianapolis Center
04:34PM 39.5706 -84.2650 274° West 123 142 2,400 600 Climbing Indianapolis Center
04:34PM 39.5731 -84.2797 282° West 106 122 2,700 720 Climbing Indianapolis Center
04:35PM 39.5867 -84.2892 332° Northwest 91 105 3,200 840 Climbing Indianapolis Center
04:35PM 39.5950 -84.2933 339° North 96 110 3,500 780 Climbing Indianapolis Center
04:36PM 39.6117 -84.3019 338° Northwest 94 108 4,000 540 Climbing Indianapolis Center
04:36PM 39.6192 -84.3047 344° North 93 107 4,100 180 Climbing Indianapolis Center
04:37PM 39.6394 -84.3167 336° Northwest 98 113 4,200  Climbing Indianapolis Center
04:37PM 39.6514 -84.3225 339° North 137 158 4,100 -240 Descending Indianapolis Center
04:38PM 39.6783 -84.3289 350° North 124 143 4,000 -120 Descending Indianapolis Center
04:38PM 39.6922 -84.3361 338° Northwest 135 155 4,000 60 Level Indianapolis Center
04:39PM 39.7136 -84.3425 347° North 132 152 4,100 -120 Climbing Indianapolis Center
04:39PM 39.7247 -84.3489 336° Northwest 128 147 3,900 -120 Descending Indianapolis Center
04:40PM 39.7469 -84.3514 355° North 128 147 4,000 60 Climbing Indianapolis Center
04:41PM 39.7803 -84.3556 355° North 122 140 4,100  Climbing Indianapolis Center
04:42PM 39.8147 -84.3594 355° North 122 140 4,100  Level Indianapolis Center
04:43PM 39.8614 -84.3672 353° North 129 148 4,100  Level Indianapolis Center
04:44PM 39.8858 -84.3703 355° North 126 145 4,200  Climbing Indianapolis Center
04:45PM 39.9006 -84.3753 345° North 127 146 4,100 -240 Descending Indianapolis Center
04:45PM 39.9217 -84.3792 352° North 128 147 4,000  Descending Indianapolis Center
04:46PM 39.9375 -84.3856 343° North 131 151 4,100 60 Climbing Indianapolis Center
04:46PM 39.9636 -84.3878 356° North 128 147 4,100  Level Indianapolis Center
04:47PM 39.9731 -84.3878 360° North 126 145 4,100 60 Level Indianapolis Center
04:47PM 39.9986 -84.3925 352° North 127 146 4,200  Climbing Indianapolis Center
04:48PM 40.0244 -84.3689 35° Northeast 118 136 4,100 -120 Descending Indianapolis Center
04:49PM 40.0314 -84.3656 20° North 110 127 4,100  Level Indianapolis Center
04:49PM 40.0525 -84.3511 28° Northeast 114 131 4,100  Level Indianapolis Center
04:50PM 40.0625 -84.3425 33° Northeast 112 129 4,100 -240 Level Indianapolis Center
04:50PM 40.0772 -84.3242 44° Northeast 113 130 3,900 -420 Descending Indianapolis Center
04:51PM 40.0839 -84.3128 53° Northeast 113 130 3,700 -720 Descending Indianapolis Center
04:51PM 40.0983 -84.2936 45° Northeast 113 130 3,200 -720 Descending Indianapolis Center
04:52PM 40.1050 -84.2828 51° Northeast 109 125 3,000 -240 Descending Indianapolis Center
04:52PM 40.1150 -84.2686 47° Northeast 112 129 3,000  Level Indianapolis Center
04:53PM 40.1392 -84.2403 42° Northeast 109 125 3,100  Climbing Indianapolis Center
04:54PM 40.1603 -84.2089 49° Northeast 113 130 3,100 -60 Level Indianapolis Center
04:55PM 40.1781 -84.1747 56° Northeast 112 129 3,000 -60 Descending Indianapolis Center
04:56PM 40.2092 -84.1556 25° Northeast 110 127 3,000  Level Indianapolis Center
04:57PM 40.2217 -84.1300 57° Northeast 103 119 3,100  Climbing Indianapolis Center
04:59PM 40.2436 -84.0908 54° Northeast 107 123 3,000  Descending Indianapolis Center
05:00PM 40.2664 -84.0794 21° North 115 132 3,100  Climbing Indianapolis Center
05:01PM 40.2947 -84.1014 329° Northwest 128 147 3,100 60 Level Indianapolis Center
05:01PM 40.3064 -84.1211 308° West 139 160 3,200 60 Climbing Indianapolis Center
05:02PM 40.3239 -84.1439 315° West 133 153 3,200 60 Level Indianapolis Center
05:02PM 40.3317 -84.1464 346° North 135 155 3,300 -240 Climbing Indianapolis Center
05:03PM 40.3700 -84.1653 339° North 138 159 2,900 -240 Descending Indianapolis Center
05:04PM 40.3922 -84.1822 330° Northwest 134 154 2,900 60 Level Indianapolis Center
05:04PM 40.3975 -84.1881 320° Northwest 122 140 3,000 -120 Climbing Indianapolis Center
05:05PM 40.4217 -84.2014 337° Northwest 124 143 2,800 -240 Descending Indianapolis Center
05:06PM 40.4503 -84.2281 325° Northwest 123 142 2,600 -180 Descending Indianapolis Center
05:06PM 40.4581 -84.2428 305° West 121 139 2,600 60 Level Indianapolis Center
05:07PM 40.4764 -84.2531 337° Northwest 123 142 2,700 -1,140 Climbing Indianapolis Center
05:07PM 40.4833 -84.2681 301° West 126 145 1,500 -1,140 Descending Indianapolis Center
05:08PM 40.5028 -84.2872 323° Northwest 83 96 1,600 60 Climbing Indianapolis Center
05:10PM 40.4471 -84.2806 175° South  Level FlightAware Approximate
05:12PM 40.4978 -84.2728 175° South 84 97 1,800  Level Indianapolis Center
05:13PM 40.4789 -84.2731 181° South 79 91 2,600 540 Climbing Indianapolis Center
05:14PM 40.4625 -84.2956 226° Southwest 99 114 3,000 240 Climbing Indianapolis Center
05:15PM 40.4394 -84.3225 222° Southwest 120 138 3,100 60 Climbing Indianapolis Center
05:15PM 40.4325 -84.3317 225° Southwest 146 168 3,100 -120 Level Indianapolis Center
05:16PM 40.4139 -84.3519 220° Southwest 128 147 3,000 -120 Descending Indianapolis Center
05:16PM 40.4111 -84.3561 229° Southwest 120 138 3,000  Level Indianapolis Center
05:17PM 40.2284 -84.2550 175° South  Level FlightAware Approximate
05:17PM 40.3858 -84.3892 225° Southwest 124 143 3,000  Level Indianapolis Center
05:18PM 40.3622 -84.4217 226° Southwest 120 138 3,100  Climbing Indianapolis Center
05:19PM 40.3411 -84.4489 225° Southwest 120 138 3,000  Descending Indianapolis Center
05:20PM 40.3108 -84.4886 225° Southwest 125 144 3,100  Climbing Indianapolis Center
05:21PM 40.2808 -84.4953 190° South 109 125 3,100 -60 Level Indianapolis Center
05:22PM 40.2492 -84.4992 185° South 111 128 3,000  Descending Indianapolis Center
05:23PM 40.2194 -84.5033 186° South 109 125 3,100  Climbing Indianapolis Center
05:23PM 40.2078 -84.5064 191° South 124 143 3,000  Descending Indianapolis Center
05:24PM 40.1853 -84.5122 191° South 109 125 3,100 -120 Climbing Indianapolis Center
05:25PM 40.1833 -84.5106 147° Southeast 106 122 2,900 -120 Descending Indianapolis Center
05:25PM 40.1558 -84.5136 185° South 108 124 3,000  Climbing Indianapolis Center
05:26PM 40.1489 -84.5144 185° South 108 124 2,900  Descending Indianapolis Center
05:26PM 40.1258 -84.5206 191° South 110 127 3,000  Climbing Indianapolis Center
05:27PM 40.1169 -84.5231 192° South 109 125 2,900  Descending Indianapolis Center
05:27PM 40.0981 -84.5275 190° South 110 127 3,000  Climbing Indianapolis Center
05:28PM 40.0869 -84.5292 187° South 109 125 2,900 60 Descending Indianapolis Center
05:28PM 40.0683 -84.5317 186° South 107 123 3,100  Climbing Indianapolis Center
05:29PM 40.0572 -84.5353 194° South 108 124 2,900 -120 Descending Indianapolis Center
05:29PM 40.0383 -84.5383 187° South 109 125 3,000 60 Climbing Indianapolis Center
05:30PM 40.0264 -84.5411 190° South 109 125 3,000 60 Level Indianapolis Center
05:30PM 40.0086 -84.5453 190° South 111 128 3,100 -120 Climbing Indianapolis Center
05:31PM 39.9961 -84.5492 193° South 110 127 2,900 -120 Descending Indianapolis Center
05:31PM 39.9808 -84.5494 181° South 106 122 3,000  Climbing Indianapolis Center
05:32PM 39.9661 -84.5525 189° South 109 125 2,900  Descending Indianapolis Center
05:32PM 39.9511 -84.5564 191° South 110 127 3,000  Climbing Indianapolis Center
05:33PM 39.9347 -84.5578 184° South 109 125 2,900 60 Descending Indianapolis Center
05:33PM 39.9228 -84.5417 134° Southeast 99 114 3,100 180 Climbing Indianapolis Center
05:34PM 39.8925 -84.5292 162° South 107 123 3,200 -60 Climbing Indianapolis Center
05:35PM 39.8667 -84.5119 153° Southeast 107 123 3,000 -60 Descending Indianapolis Center
05:36PM 39.8386 -84.4947 155° Southeast 110 127 3,100  Climbing Indianapolis Center
05:37PM 39.8042 -84.4792 161° South 113 130 3,000 -60 Descending Indianapolis Center
05:38PM 39.8028 -84.4461 93° East 102 117 3,000  Level Indianapolis Center
05:39PM 39.8072 -84.4169 79° East 96 110 3,000 -120 Level Indianapolis Center
05:41PM 39.8397 -84.3506 57° Northeast 109 125 2,800 -240 Descending Indianapolis Center
05:42PM 39.8589 -84.3206 50° Northeast 103 119 2,400 -480 Descending Indianapolis Center
05:43PM 39.8694 -84.2947 62° Northeast 77 89 1,900 -420 Descending Indianapolis Center
05:44PM 39.8817 -84.2719 55° Northeast 73 84 1,600 -180 Descending Indianapolis Center
05:46PM 39.9011 -84.2364 55° Northeast 83 96 1,500 120 Descending Indianapolis Center
05:46PM 39.9086 -84.2239 52° Northeast 66 76 1,900 780 Climbing Indianapolis Center
05:47PM 39.9164 -84.2031 64° Northeast 61 70 2,800 660 Climbing Indianapolis Center
05:48PM 39.9225 -84.1794 71° East 86 99 3,200 60 Climbing Indianapolis Center
05:49PM 39.9008 -84.1631 150° Southeast 108 124 3,000 -120 Descending Indianapolis Center
05:50PM 39.8761 -84.1569 169° South 96 110 3,000  Level Indianapolis Center
05:51PM 39.8472 -84.1506 170° South 97 112 3,000  Level Indianapolis Center
05:52PM 39.8242 -84.1503 179° South 95 109 3,000  Level Indianapolis Center
05:53PM 39.7933 -84.1433 170° South 91 105 3,100  Climbing Indianapolis Center
05:55PM 39.7642 -84.1394 174° South 101 116 3,000 -120 Descending Indianapolis Center
05:56PM 39.7364 -84.1467 191° South 112 129 2,900 -180 Descending Indianapolis Center
05:57PM 39.7058 -84.1617 201° Southwest 100 115 2,700 -240 Descending Indianapolis Center